sensor_id;sensor_type;location;lat;lon;timestamp;temperature;humidity
3713;DHT22;1872;51.406;6.856;2023-12-28T00:00:35;8.30;99.90
3713;DHT22;1872;51.406;6.856;2023-12-28T00:03:00;8.30;99.90
3713;DHT22;1872;51.406;6.856;2023-12-28T00:05:26;8.40;99.90
3713;DHT22;1872;51.406;6.856;2023-12-28T00:07:52;8.40;99.90
3713;DHT22;1872;51.406;6.856;2023-12-28T00:10:24;8.50;99.90
3713;DHT22;1872;51.406;6.856;2023-12-28T00:12:50;8.50;99.90
3713;DHT22;1872;51.406;6.856;2023-12-28T00:15:16;8.50;99.90
3713;DHT22;1872;51.406;6.856;2023-12-28T00:17:42;8.50;99.90
3713;DHT22;1872;51.406;6.856;2023-12-28T00:20:08;8.50;99.90
3713;DHT22;1872;51.406;6.856;2023-12-28T00:22:33;8.50;99.90
3713;DHT22;1872;51.406;6.856;2023-12-28T00:24:59;8.60;99.90
3713;DHT22;1872;51.406;6.856;2023-12-28T00:27:25;8.60;99.90
3713;DHT22;1872;51.406;6.856;2023-12-28T00:29:50;8.60;99.90
3713;DHT22;1872;51.406;6.856;2023-12-28T00:32:16;8.70;99.90
3713;DHT22;1872;51.406;6.856;2023-12-28T00:34:42;8.70;99.90
3713;DHT22;1872;51.406;6.856;2023-12-28T00:37:08;8.70;99.90
3713;DHT22;1872;51.406;6.856;2023-12-28T00:39:34;8.70;99.90
3713;DHT22;1872;51.406;6.856;2023-12-28T00:42:00;8.70;99.90
3713;DHT22;1872;51.406;6.856;2023-12-28T00:44:26;8.70;99.90
3713;DHT22;1872;51.406;6.856;2023-12-28T00:46:52;8.80;99.90
3713;DHT22;1872;51.406;6.856;2023-12-28T00:49:18;8.80;99.90
3713;DHT22;1872;51.406;6.856;2023-12-28T00:51:43;8.80;99.90
3713;DHT22;1872;51.406;6.856;2023-12-28T00:54:09;8.80;99.90
3713;DHT22;1872;51.406;6.856;2023-12-28T00:56:35;8.90;99.90
3713;DHT22;1872;51.406;6.856;2023-12-28T00:59:00;8.90;99.90
3713;DHT22;1872;51.406;6.856;2023-12-28T01:01:27;8.90;99.90
3713;DHT22;1872;51.406;6.856;2023-12-28T01:03:56;8.90;99.90
3713;DHT22;1872;51.406;6.856;2023-12-28T01:06:22;9.00;99.90
3713;DHT22;1872;51.406;6.856;2023-12-28T01:08:48;9.00;99.90
3713;DHT22;1872;51.406;6.856;2023-12-28T01:11:13;9.00;99.90
3713;DHT22;1872;51.406;6.856;2023-12-28T01:13:39;9.00;99.90
3713;DHT22;1872;51.406;6.856;2023-12-28T01:16:05;9.00;99.90
3713;DHT22;1872;51.406;6.856;2023-12-28T01:18:31;9.10;99.90
3713;DHT22;1872;51.406;6.856;2023-12-28T01:20:57;9.10;99.90
3713;DHT22;1872;51.406;6.856;2023-12-28T01:23:22;9.10;99.90
3713;DHT22;1872;51.406;6.856;2023-12-28T01:25:48;9.10;99.90
3713;DHT22;1872;51.406;6.856;2023-12-28T01:28:14;9.10;99.90
3713;DHT22;1872;51.406;6.856;2023-12-28T01:30:40;9.10;99.90
3713;DHT22;1872;51.406;6.856;2023-12-28T01:33:06;9.20;99.90
3713;DHT22;1872;51.406;6.856;2023-12-28T01:35:31;9.20;99.90
3713;DHT22;1872;51.406;6.856;2023-12-28T01:37:57;9.10;99.90
3713;DHT22;1872;51.406;6.856;2023-12-28T01:40:23;9.20;99.90
3713;DHT22;1872;51.406;6.856;2023-12-28T01:42:48;9.20;99.90
3713;DHT22;1872;51.406;6.856;2023-12-28T01:45:14;9.20;99.90
3713;DHT22;1872;51.406;6.856;2023-12-28T01:47:40;9.20;99.90
3713;DHT22;1872;51.406;6.856;2023-12-28T01:50:07;9.20;99.90
3713;DHT22;1872;51.406;6.856;2023-12-28T01:52:33;9.30;99.90
3713;DHT22;1872;51.406;6.856;2023-12-28T01:55:00;9.20;99.90
3713;DHT22;1872;51.406;6.856;2023-12-28T01:57:26;9.30;99.90
3713;DHT22;1872;51.406;6.856;2023-12-28T01:59:52;9.30;99.90
3713;DHT22;1872;51.406;6.856;2023-12-28T02:02:18;9.30;99.90
3713;DHT22;1872;51.406;6.856;2023-12-28T02:04:45;9.30;99.90
3713;DHT22;1872;51.406;6.856;2023-12-28T02:07:12;9.30;99.90
3713;DHT22;1872;51.406;6.856;2023-12-28T02:09:38;9.30;99.90
3713;DHT22;1872;51.406;6.856;2023-12-28T02:12:05;9.30;99.90
3713;DHT22;1872;51.406;6.856;2023-12-28T02:14:31;9.30;99.90
3713;DHT22;1872;51.406;6.856;2023-12-28T02:17:05;9.30;99.90
3713;DHT22;1872;51.406;6.856;2023-12-28T02:19:53;9.40;99.90
3713;DHT22;1872;51.406;6.856;2023-12-28T02:22:20;9.40;99.90
3713;DHT22;1872;51.406;6.856;2023-12-28T02:25:05;9.40;99.90
3713;DHT22;1872;51.406;6.856;2023-12-28T02:27:39;9.40;99.90
3713;DHT22;1872;51.406;6.856;2023-12-28T02:30:09;9.40;99.90
3713;DHT22;1872;51.406;6.856;2023-12-28T02:32:44;9.40;99.90
3713;DHT22;1872;51.406;6.856;2023-12-28T02:36:18;9.40;99.90
3713;DHT22;1872;51.406;6.856;2023-12-28T02:38:14;9.40;99.90
3713;DHT22;1872;51.406;6.856;2023-12-28T02:40:43;9.40;99.90
3713;DHT22;1872;51.406;6.856;2023-12-28T02:43:10;9.40;99.90
3713;DHT22;1872;51.406;6.856;2023-12-28T02:45:37;9.40;99.90
3713;DHT22;1872;51.406;6.856;2023-12-28T02:48:04;9.40;99.90
3713;DHT22;1872;51.406;6.856;2023-12-28T02:50:31;9.40;99.90
3713;DHT22;1872;51.406;6.856;2023-12-28T02:52:57;9.40;99.90
3713;DHT22;1872;51.406;6.856;2023-12-28T02:55:23;9.40;99.90
3713;DHT22;1872;51.406;6.856;2023-12-28T02:57:50;9.40;99.90
3713;DHT22;1872;51.406;6.856;2023-12-28T03:00:16;9.30;99.90
3713;DHT22;1872;51.406;6.856;2023-12-28T03:02:42;9.30;99.90
3713;DHT22;1872;51.406;6.856;2023-12-28T03:05:08;9.30;99.90
3713;DHT22;1872;51.406;6.856;2023-12-28T03:07:34;9.30;99.90
3713;DHT22;1872;51.406;6.856;2023-12-28T03:10:01;9.30;99.90
3713;DHT22;1872;51.406;6.856;2023-12-28T03:12:28;9.40;99.90
3713;DHT22;1872;51.406;6.856;2023-12-28T03:14:53;9.40;99.90
3713;DHT22;1872;51.406;6.856;2023-12-28T03:17:19;9.40;99.90
3713;DHT22;1872;51.406;6.856;2023-12-28T03:19:45;9.40;99.90
3713;DHT22;1872;51.406;6.856;2023-12-28T03:22:11;9.40;99.90
3713;DHT22;1872;51.406;6.856;2023-12-28T03:24:37;9.40;99.90
3713;DHT22;1872;51.406;6.856;2023-12-28T03:27:04;9.40;99.90
3713;DHT22;1872;51.406;6.856;2023-12-28T03:29:30;9.40;99.90
3713;DHT22;1872;51.406;6.856;2023-12-28T03:31:56;9.50;99.90
3713;DHT22;1872;51.406;6.856;2023-12-28T03:34:22;9.50;99.90
3713;DHT22;1872;51.406;6.856;2023-12-28T03:36:49;9.50;99.90
3713;DHT22;1872;51.406;6.856;2023-12-28T03:39:15;9.50;99.90
3713;DHT22;1872;51.406;6.856;2023-12-28T03:41:41;9.50;99.90
3713;DHT22;1872;51.406;6.856;2023-12-28T03:44:06;9.50;99.90
3713;DHT22;1872;51.406;6.856;2023-12-28T03:46:32;9.60;99.90
3713;DHT22;1872;51.406;6.856;2023-12-28T03:48:58;9.60;99.90
3713;DHT22;1872;51.406;6.856;2023-12-28T03:51:24;9.60;99.90
3713;DHT22;1872;51.406;6.856;2023-12-28T03:53:49;9.60;99.90
3713;DHT22;1872;51.406;6.856;2023-12-28T03:56:22;9.60;99.90
3713;DHT22;1872;51.406;6.856;2023-12-28T03:58:48;9.60;99.90
3713;DHT22;1872;51.406;6.856;2023-12-28T04:01:15;9.60;99.90
3713;DHT22;1872;51.406;6.856;2023-12-28T04:03:41;9.60;99.90
3713;DHT22;1872;51.406;6.856;2023-12-28T04:06:07;9.60;99.90
3713;DHT22;1872;51.406;6.856;2023-12-28T04:08:32;9.70;99.90
3713;DHT22;1872;51.406;6.856;2023-12-28T04:10:58;9.60;99.90
3713;DHT22;1872;51.406;6.856;2023-12-28T04:13:24;9.60;99.90
3713;DHT22;1872;51.406;6.856;2023-12-28T04:15:49;9.70;99.90
3713;DHT22;1872;51.406;6.856;2023-12-28T04:18:15;9.60;99.90
3713;DHT22;1872;51.406;6.856;2023-12-28T04:20:42;9.60;99.90
3713;DHT22;1872;51.406;6.856;2023-12-28T04:23:10;9.70;99.90
3713;DHT22;1872;51.406;6.856;2023-12-28T04:25:38;9.70;99.90
3713;DHT22;1872;51.406;6.856;2023-12-28T04:28:04;9.70;99.90
3713;DHT22;1872;51.406;6.856;2023-12-28T04:30:31;9.70;99.90
3713;DHT22;1872;51.406;6.856;2023-12-28T04:32:57;9.70;99.90
3713;DHT22;1872;51.406;6.856;2023-12-28T04:35:23;9.70;99.90
3713;DHT22;1872;51.406;6.856;2023-12-28T04:37:49;9.70;99.90
3713;DHT22;1872;51.406;6.856;2023-12-28T04:40:15;9.70;99.90
3713;DHT22;1872;51.406;6.856;2023-12-28T04:42:41;9.70;99.90
3713;DHT22;1872;51.406;6.856;2023-12-28T04:45:07;9.70;99.90
3713;DHT22;1872;51.406;6.856;2023-12-28T04:47:33;9.80;99.90
3713;DHT22;1872;51.406;6.856;2023-12-28T04:49:58;9.80;99.90
3713;DHT22;1872;51.406;6.856;2023-12-28T04:52:24;9.80;99.90
3713;DHT22;1872;51.406;6.856;2023-12-28T04:54:50;9.80;99.90
3713;DHT22;1872;51.406;6.856;2023-12-28T04:57:16;9.80;99.90
3713;DHT22;1872;51.406;6.856;2023-12-28T04:59:42;9.80;99.90
3713;DHT22;1872;51.406;6.856;2023-12-28T05:02:07;9.80;99.90
3713;DHT22;1872;51.406;6.856;2023-12-28T05:04:37;9.80;99.90
3713;DHT22;1872;51.406;6.856;2023-12-28T05:07:05;9.80;99.90
3713;DHT22;1872;51.406;6.856;2023-12-28T05:09:31;9.80;99.90
3713;DHT22;1872;51.406;6.856;2023-12-28T05:11:57;9.80;99.90
3713;DHT22;1872;51.406;6.856;2023-12-28T05:14:22;9.80;99.90
3713;DHT22;1872;51.406;6.856;2023-12-28T05:16:48;9.80;99.90
3713;DHT22;1872;51.406;6.856;2023-12-28T05:19:14;9.80;99.90
3713;DHT22;1872;51.406;6.856;2023-12-28T05:21:40;9.90;99.90
3713;DHT22;1872;51.406;6.856;2023-12-28T05:24:05;9.90;99.90
3713;DHT22;1872;51.406;6.856;2023-12-28T05:26:31;9.90;99.90
3713;DHT22;1872;51.406;6.856;2023-12-28T05:28:57;9.90;99.90
3713;DHT22;1872;51.406;6.856;2023-12-28T05:31:23;9.90;99.90
3713;DHT22;1872;51.406;6.856;2023-12-28T05:33:49;9.90;99.90
3713;DHT22;1872;51.406;6.856;2023-12-28T05:36:15;9.90;99.90
3713;DHT22;1872;51.406;6.856;2023-12-28T05:38:41;9.90;99.90
3713;DHT22;1872;51.406;6.856;2023-12-28T05:41:06;9.90;99.90
3713;DHT22;1872;51.406;6.856;2023-12-28T05:43:32;9.90;99.90
3713;DHT22;1872;51.406;6.856;2023-12-28T05:45:57;9.90;99.90
3713;DHT22;1872;51.406;6.856;2023-12-28T05:48:23;9.90;99.90
3713;DHT22;1872;51.406;6.856;2023-12-28T05:50:49;9.90;99.90
3713;DHT22;1872;51.406;6.856;2023-12-28T05:53:15;9.90;99.90
3713;DHT22;1872;51.406;6.856;2023-12-28T05:55:41;10.00;99.90
3713;DHT22;1872;51.406;6.856;2023-12-28T05:58:06;10.00;99.90
3713;DHT22;1872;51.406;6.856;2023-12-28T06:00:32;9.90;99.90
3713;DHT22;1872;51.406;6.856;2023-12-28T06:02:58;10.00;99.90
3713;DHT22;1872;51.406;6.856;2023-12-28T06:05:24;9.90;99.90
3713;DHT22;1872;51.406;6.856;2023-12-28T06:07:49;10.00;99.90
3713;DHT22;1872;51.406;6.856;2023-12-28T06:10:15;10.00;99.90
3713;DHT22;1872;51.406;6.856;2023-12-28T06:12:41;10.00;99.90
3713;DHT22;1872;51.406;6.856;2023-12-28T06:15:07;10.00;99.90
3713;DHT22;1872;51.406;6.856;2023-12-28T06:17:33;10.00;99.90
3713;DHT22;1872;51.406;6.856;2023-12-28T06:19:58;10.00;99.90
3713;DHT22;1872;51.406;6.856;2023-12-28T06:22:24;10.00;99.90
3713;DHT22;1872;51.406;6.856;2023-12-28T06:24:53;10.00;99.90
3713;DHT22;1872;51.406;6.856;2023-12-28T06:27:19;10.00;99.90
3713;DHT22;1872;51.406;6.856;2023-12-28T06:29:45;10.00;99.90
3713;DHT22;1872;51.406;6.856;2023-12-28T06:32:11;10.00;99.90
3713;DHT22;1872;51.406;6.856;2023-12-28T06:34:37;10.00;99.90
3713;DHT22;1872;51.406;6.856;2023-12-28T06:37:03;10.00;99.90
3713;DHT22;1872;51.406;6.856;2023-12-28T06:39:29;10.00;99.90
3713;DHT22;1872;51.406;6.856;2023-12-28T06:41:55;10.00;99.90
3713;DHT22;1872;51.406;6.856;2023-12-28T06:44:20;10.00;99.90
3713;DHT22;1872;51.406;6.856;2023-12-28T06:46:46;10.00;99.90
3713;DHT22;1872;51.406;6.856;2023-12-28T06:49:12;9.90;99.90
3713;DHT22;1872;51.406;6.856;2023-12-28T06:51:37;9.90;99.90
3713;DHT22;1872;51.406;6.856;2023-12-28T06:54:03;9.90;99.90
3713;DHT22;1872;51.406;6.856;2023-12-28T06:56:29;9.90;99.90
3713;DHT22;1872;51.406;6.856;2023-12-28T06:58:55;9.90;99.90
3713;DHT22;1872;51.406;6.856;2023-12-28T07:01:20;9.90;99.90
3713;DHT22;1872;51.406;6.856;2023-12-28T07:03:46;9.90;99.90
3713;DHT22;1872;51.406;6.856;2023-12-28T07:06:13;9.90;99.90
3713;DHT22;1872;51.406;6.856;2023-12-28T07:08:39;9.90;99.90
3713;DHT22;1872;51.406;6.856;2023-12-28T07:11:05;10.00;99.90
3713;DHT22;1872;51.406;6.856;2023-12-28T07:13:31;10.00;99.90
3713;DHT22;1872;51.406;6.856;2023-12-28T07:15:57;10.00;99.90
3713;DHT22;1872;51.406;6.856;2023-12-28T07:18:23;10.00;99.90
3713;DHT22;1872;51.406;6.856;2023-12-28T07:20:48;10.00;99.90
3713;DHT22;1872;51.406;6.856;2023-12-28T07:23:14;10.00;99.90
3713;DHT22;1872;51.406;6.856;2023-12-28T07:25:40;10.00;99.90
3713;DHT22;1872;51.406;6.856;2023-12-28T07:28:06;10.00;99.90
3713;DHT22;1872;51.406;6.856;2023-12-28T07:30:32;10.00;99.90
3713;DHT22;1872;51.406;6.856;2023-12-28T07:32:58;10.00;99.90
3713;DHT22;1872;51.406;6.856;2023-12-28T07:35:23;10.00;99.90
3713;DHT22;1872;51.406;6.856;2023-12-28T07:37:49;10.00;99.90
3713;DHT22;1872;51.406;6.856;2023-12-28T07:40:15;10.00;99.90
3713;DHT22;1872;51.406;6.856;2023-12-28T07:42:41;10.00;99.90
3713;DHT22;1872;51.406;6.856;2023-12-28T07:45:07;10.00;99.90
3713;DHT22;1872;51.406;6.856;2023-12-28T07:47:33;10.00;99.90
3713;DHT22;1872;51.406;6.856;2023-12-28T07:49:59;10.00;99.90
3713;DHT22;1872;51.406;6.856;2023-12-28T07:52:26;10.00;99.90
3713;DHT22;1872;51.406;6.856;2023-12-28T07:54:52;10.00;99.90
3713;DHT22;1872;51.406;6.856;2023-12-28T07:57:18;10.10;99.90
3713;DHT22;1872;51.406;6.856;2023-12-28T08:03:04;10.20;99.90
3713;DHT22;1872;51.406;6.856;2023-12-28T08:05:29;10.20;99.90
3713;DHT22;1872;51.406;6.856;2023-12-28T08:07:55;10.20;99.90
3713;DHT22;1872;51.406;6.856;2023-12-28T08:10:21;10.20;99.90
3713;DHT22;1872;51.406;6.856;2023-12-28T08:12:47;10.20;99.90
3713;DHT22;1872;51.406;6.856;2023-12-28T08:15:12;10.20;99.90
3713;DHT22;1872;51.406;6.856;2023-12-28T08:17:38;10.20;99.90
3713;DHT22;1872;51.406;6.856;2023-12-28T08:20:05;10.20;99.90
3713;DHT22;1872;51.406;6.856;2023-12-28T08:22:32;10.20;99.90
3713;DHT22;1872;51.406;6.856;2023-12-28T08:24:58;10.20;99.90
3713;DHT22;1872;51.406;6.856;2023-12-28T08:27:23;10.20;99.90
3713;DHT22;1872;51.406;6.856;2023-12-28T08:29:49;10.20;99.90
3713;DHT22;1872;51.406;6.856;2023-12-28T08:32:16;10.30;99.90
3713;DHT22;1872;51.406;6.856;2023-12-28T08:34:43;10.30;99.90
3713;DHT22;1872;51.406;6.856;2023-12-28T08:37:08;10.30;99.90
3713;DHT22;1872;51.406;6.856;2023-12-28T08:39:34;10.40;99.90
3713;DHT22;1872;51.406;6.856;2023-12-28T08:42:00;10.40;99.90
3713;DHT22;1872;51.406;6.856;2023-12-28T08:44:26;10.50;99.90
3713;DHT22;1872;51.406;6.856;2023-12-28T08:46:52;10.50;99.90
3713;DHT22;1872;51.406;6.856;2023-12-28T08:49:17;10.50;99.90
3713;DHT22;1872;51.406;6.856;2023-12-28T08:51:43;10.50;99.90
3713;DHT22;1872;51.406;6.856;2023-12-28T08:54:09;10.50;99.90
3713;DHT22;1872;51.406;6.856;2023-12-28T08:56:35;10.60;99.90
3713;DHT22;1872;51.406;6.856;2023-12-28T08:59:01;10.50;99.90
3713;DHT22;1872;51.406;6.856;2023-12-28T09:01:27;10.60;99.90
3713;DHT22;1872;51.406;6.856;2023-12-28T09:03:55;10.60;99.90
3713;DHT22;1872;51.406;6.856;2023-12-28T09:06:21;10.60;99.90
3713;DHT22;1872;51.406;6.856;2023-12-28T09:08:49;10.60;99.90
3713;DHT22;1872;51.406;6.856;2023-12-28T09:11:16;10.60;99.90
3713;DHT22;1872;51.406;6.856;2023-12-28T09:13:42;10.60;99.90
3713;DHT22;1872;51.406;6.856;2023-12-28T09:16:09;10.60;99.90
3713;DHT22;1872;51.406;6.856;2023-12-28T09:18:36;10.60;99.90
3713;DHT22;1872;51.406;6.856;2023-12-28T09:21:06;10.70;99.90
3713;DHT22;1872;51.406;6.856;2023-12-28T09:23:33;10.70;99.90
3713;DHT22;1872;51.406;6.856;2023-12-28T09:26:01;10.90;99.90
3713;DHT22;1872;51.406;6.856;2023-12-28T09:28:28;10.90;99.90
3713;DHT22;1872;51.406;6.856;2023-12-28T09:30:54;11.00;99.90
3713;DHT22;1872;51.406;6.856;2023-12-28T09:33:20;11.00;99.90
3713;DHT22;1872;51.406;6.856;2023-12-28T09:35:46;11.10;99.90
3713;DHT22;1872;51.406;6.856;2023-12-28T09:38:13;11.10;99.90
3713;DHT22;1872;51.406;6.856;2023-12-28T09:40:42;11.10;99.90
3713;DHT22;1872;51.406;6.856;2023-12-28T09:43:30;11.10;99.90
3713;DHT22;1872;51.406;6.856;2023-12-28T09:46:06;11.30;99.90
3713;DHT22;1872;51.406;6.856;2023-12-28T09:48:33;11.40;99.90
3713;DHT22;1872;51.406;6.856;2023-12-28T09:51:00;11.40;99.90
3713;DHT22;1872;51.406;6.856;2023-12-28T09:53:26;11.30;99.90
3713;DHT22;1872;51.406;6.856;2023-12-28T09:55:52;11.30;99.90
3713;DHT22;1872;51.406;6.856;2023-12-28T09:58:19;11.40;99.90
3713;DHT22;1872;51.406;6.856;2023-12-28T10:00:46;11.30;99.90
3713;DHT22;1872;51.406;6.856;2023-12-28T10:03:15;11.30;99.90
3713;DHT22;1872;51.406;6.856;2023-12-28T10:05:41;11.40;99.90
3713;DHT22;1872;51.406;6.856;2023-12-28T10:08:08;11.40;99.90
3713;DHT22;1872;51.406;6.856;2023-12-28T10:10:34;11.50;99.90
3713;DHT22;1872;51.406;6.856;2023-12-28T10:13:00;11.50;99.90
3713;DHT22;1872;51.406;6.856;2023-12-28T10:15:25;11.50;99.90
3713;DHT22;1872;51.406;6.856;2023-12-28T10:17:54;11.60;99.90
3713;DHT22;1872;51.406;6.856;2023-12-28T10:20:20;11.60;99.90
3713;DHT22;1872;51.406;6.856;2023-12-28T10:22:47;11.70;99.90
3713;DHT22;1872;51.406;6.856;2023-12-28T10:25:13;11.80;99.90
3713;DHT22;1872;51.406;6.856;2023-12-28T10:27:39;11.80;99.90
3713;DHT22;1872;51.406;6.856;2023-12-28T10:30:08;11.80;99.90
3713;DHT22;1872;51.406;6.856;2023-12-28T10:32:42;11.90;99.90
3713;DHT22;1872;51.406;6.856;2023-12-28T10:35:08;11.90;99.90
3713;DHT22;1872;51.406;6.856;2023-12-28T10:37:35;11.80;99.90
3713;DHT22;1872;51.406;6.856;2023-12-28T10:40:05;11.80;99.90
3713;DHT22;1872;51.406;6.856;2023-12-28T10:42:43;11.80;99.90
3713;DHT22;1872;51.406;6.856;2023-12-28T10:45:11;11.80;99.90
3713;DHT22;1872;51.406;6.856;2023-12-28T10:47:43;11.90;99.90
3713;DHT22;1872;51.406;6.856;2023-12-28T10:50:11;12.00;99.90
3713;DHT22;1872;51.406;6.856;2023-12-28T10:52:39;11.90;99.90
3713;DHT22;1872;51.406;6.856;2023-12-28T10:58:34;11.80;99.90
3713;DHT22;1872;51.406;6.856;2023-12-28T11:00:41;11.70;99.90
3713;DHT22;1872;51.406;6.856;2023-12-28T11:03:09;11.60;99.90
3713;DHT22;1872;51.406;6.856;2023-12-28T11:05:40;11.50;99.90
3713;DHT22;1872;51.406;6.856;2023-12-28T11:08:09;11.40;99.90
3713;DHT22;1872;51.406;6.856;2023-12-28T11:10:37;11.40;99.90
3713;DHT22;1872;51.406;6.856;2023-12-28T11:13:05;11.30;99.90
3713;DHT22;1872;51.406;6.856;2023-12-28T11:15:31;11.30;99.90
3713;DHT22;1872;51.406;6.856;2023-12-28T11:17:57;11.30;99.90
3713;DHT22;1872;51.406;6.856;2023-12-28T11:20:22;11.30;99.90
3713;DHT22;1872;51.406;6.856;2023-12-28T11:22:49;11.30;99.90
3713;DHT22;1872;51.406;6.856;2023-12-28T11:25:19;11.30;99.90
3713;DHT22;1872;51.406;6.856;2023-12-28T11:27:45;11.30;99.90
3713;DHT22;1872;51.406;6.856;2023-12-28T11:30:14;11.30;99.90
3713;DHT22;1872;51.406;6.856;2023-12-28T11:32:43;11.30;99.90
3713;DHT22;1872;51.406;6.856;2023-12-28T11:35:13;11.40;99.90
3713;DHT22;1872;51.406;6.856;2023-12-28T11:37:51;11.40;99.90
3713;DHT22;1872;51.406;6.856;2023-12-28T11:40:18;11.40;99.90
3713;DHT22;1872;51.406;6.856;2023-12-28T11:42:51;11.40;99.90
3713;DHT22;1872;51.406;6.856;2023-12-28T11:45:19;11.40;99.90
3713;DHT22;1872;51.406;6.856;2023-12-28T11:47:45;11.40;99.90
3713;DHT22;1872;51.406;6.856;2023-12-28T11:50:11;11.40;99.90
3713;DHT22;1872;51.406;6.856;2023-12-28T11:52:38;11.40;99.90
3713;DHT22;1872;51.406;6.856;2023-12-28T11:55:04;11.40;99.90
3713;DHT22;1872;51.406;6.856;2023-12-28T11:57:30;11.40;99.90
3713;DHT22;1872;51.406;6.856;2023-12-28T12:00:01;11.50;99.90
3713;DHT22;1872;51.406;6.856;2023-12-28T12:02:30;11.50;99.90
3713;DHT22;1872;51.406;6.856;2023-12-28T12:04:56;11.50;99.90
3713;DHT22;1872;51.406;6.856;2023-12-28T12:07:24;11.50;99.90
3713;DHT22;1872;51.406;6.856;2023-12-28T12:09:55;11.60;99.90
3713;DHT22;1872;51.406;6.856;2023-12-28T12:12:22;11.60;99.90
3713;DHT22;1872;51.406;6.856;2023-12-28T12:14:47;11.60;99.90
3713;DHT22;1872;51.406;6.856;2023-12-28T12:17:13;11.60;99.90
3713;DHT22;1872;51.406;6.856;2023-12-28T12:19:39;11.60;99.90
3713;DHT22;1872;51.406;6.856;2023-12-28T12:22:05;11.70;99.90
3713;DHT22;1872;51.406;6.856;2023-12-28T12:24:32;11.70;99.90
3713;DHT22;1872;51.406;6.856;2023-12-28T12:26:58;11.70;99.90
3713;DHT22;1872;51.406;6.856;2023-12-28T12:29:29;11.70;99.90
3713;DHT22;1872;51.406;6.856;2023-12-28T12:31:56;11.60;99.90
3713;DHT22;1872;51.406;6.856;2023-12-28T12:34:22;11.60;99.90
3713;DHT22;1872;51.406;6.856;2023-12-28T12:36:47;11.60;99.90
3713;DHT22;1872;51.406;6.856;2023-12-28T12:39:14;11.50;99.90
3713;DHT22;1872;51.406;6.856;2023-12-28T12:41:40;11.50;99.90
3713;DHT22;1872;51.406;6.856;2023-12-28T12:44:08;11.50;99.90
3713;DHT22;1872;51.406;6.856;2023-12-28T12:46:35;11.60;99.90
3713;DHT22;1872;51.406;6.856;2023-12-28T12:49:02;11.60;99.90
3713;DHT22;1872;51.406;6.856;2023-12-28T12:51:28;11.60;99.90
3713;DHT22;1872;51.406;6.856;2023-12-28T12:54:01;11.60;99.90
3713;DHT22;1872;51.406;6.856;2023-12-28T12:56:29;11.60;99.90
3713;DHT22;1872;51.406;6.856;2023-12-28T12:58:55;11.50;99.90
3713;DHT22;1872;51.406;6.856;2023-12-28T13:01:22;11.60;99.90
3713;DHT22;1872;51.406;6.856;2023-12-28T13:03:49;11.60;99.90
3713;DHT22;1872;51.406;6.856;2023-12-28T13:06:15;11.60;99.90
3713;DHT22;1872;51.406;6.856;2023-12-28T13:08:41;11.60;99.90
3713;DHT22;1872;51.406;6.856;2023-12-28T13:11:07;11.60;99.90
3713;DHT22;1872;51.406;6.856;2023-12-28T13:13:33;11.60;99.90
3713;DHT22;1872;51.406;6.856;2023-12-28T13:16:00;11.60;99.90
3713;DHT22;1872;51.406;6.856;2023-12-28T13:18:26;11.60;99.90
3713;DHT22;1872;51.406;6.856;2023-12-28T13:20:51;11.60;99.90
3713;DHT22;1872;51.406;6.856;2023-12-28T13:23:17;11.60;99.90
3713;DHT22;1872;51.406;6.856;2023-12-28T13:25:43;11.60;99.90
3713;DHT22;1872;51.406;6.856;2023-12-28T13:28:10;11.60;99.90
3713;DHT22;1872;51.406;6.856;2023-12-28T13:30:39;11.60;99.90
3713;DHT22;1872;51.406;6.856;2023-12-28T13:33:05;11.60;99.90
3713;DHT22;1872;51.406;6.856;2023-12-28T13:35:32;11.60;99.90
3713;DHT22;1872;51.406;6.856;2023-12-28T13:38:00;11.60;99.90
3713;DHT22;1872;51.406;6.856;2023-12-28T13:40:32;11.60;99.90
3713;DHT22;1872;51.406;6.856;2023-12-28T13:43:19;11.60;99.90
3713;DHT22;1872;51.406;6.856;2023-12-28T13:45:44;11.60;99.90
3713;DHT22;1872;51.406;6.856;2023-12-28T13:48:10;11.50;99.90
3713;DHT22;1872;51.406;6.856;2023-12-28T13:50:37;11.50;99.90
3713;DHT22;1872;51.406;6.856;2023-12-28T13:53:03;11.50;99.90
3713;DHT22;1872;51.406;6.856;2023-12-28T13:55:31;11.50;99.90
3713;DHT22;1872;51.406;6.856;2023-12-28T13:57:58;11.50;99.90
3713;DHT22;1872;51.406;6.856;2023-12-28T14:00:24;11.40;99.90
3713;DHT22;1872;51.406;6.856;2023-12-28T14:02:51;11.40;99.90
3713;DHT22;1872;51.406;6.856;2023-12-28T14:05:28;11.40;99.90
3713;DHT22;1872;51.406;6.856;2023-12-28T14:07:53;11.40;99.90
3713;DHT22;1872;51.406;6.856;2023-12-28T14:10:19;11.40;99.90
3713;DHT22;1872;51.406;6.856;2023-12-28T14:12:45;11.40;99.90
3713;DHT22;1872;51.406;6.856;2023-12-28T14:15:11;11.40;99.90
3713;DHT22;1872;51.406;6.856;2023-12-28T14:17:37;11.30;99.90
3713;DHT22;1872;51.406;6.856;2023-12-28T14:20:03;11.30;99.90
3713;DHT22;1872;51.406;6.856;2023-12-28T14:22:29;11.30;99.90
3713;DHT22;1872;51.406;6.856;2023-12-28T14:24:55;11.30;99.90
3713;DHT22;1872;51.406;6.856;2023-12-28T14:27:21;11.30;99.90
3713;DHT22;1872;51.406;6.856;2023-12-28T14:29:47;11.30;99.90
